Time;durP1;ratioP1;P1;durP2;ratioP2;P2;SDS_P1;SDS_P2;PMS_P1;PMS_P2;Temp;Humidity;BMP_temperature;BMP_pressure;BME280_temperature;BME280_humidity;BME280_pressure;Samples;Min_cycle;Max_cycle;Signal;HPM_P1;HPM_P2
2021/12/04 00:00:44;;;;;;;2.50;1.67;;;-1.80;99.90;;;;;;5100900;28;20483;-79
2021/12/04 00:03:10;;;;;;;1.80;1.70;;;-1.70;99.90;;;;;;5099576;28;20447;-79
2021/12/04 00:05:38;;;;;;;2.27;1.50;;;-1.70;99.90;;;;;;5100072;28;20505;-79
2021/12/04 00:08:06;;;;;;;3.57;2.57;;;-0.40;99.90;;;;;;5101420;28;20195;-79
2021/12/04 00:10:31;;;;;;;2.00;1.23;;;-1.70;99.90;;;;;;5101035;28;20462;-79
2021/12/04 00:12:57;;;;;;;1.40;1.30;;;-1.60;99.90;;;;;;5100310;28;20442;-79
2021/12/04 00:15:23;;;;;;;2.57;1.60;;;-0.70;99.90;;;;;;5099831;28;20208;-79
2021/12/04 00:17:48;;;;;;;3.40;2.00;;;-1.60;99.90;;;;;;5099241;28;20195;-79
2021/12/04 00:20:14;;;;;;;2.57;1.93;;;-1.60;99.90;;;;;;5099479;28;20224;-79
2021/12/04 00:22:40;;;;;;;3.00;2.10;;;-1.50;99.90;;;;;;5099747;28;20176;-79
2021/12/04 00:25:07;;;;;;;2.40;1.80;;;-1.50;99.90;;;;;;5100980;28;20668;-79
2021/12/04 00:27:32;;;;;;;2.03;1.83;;;-1.50;99.90;;;;;;5100113;28;20176;-79
2021/12/04 00:29:58;;;;;;;2.20;1.57;;;-1.40;99.90;;;;;;5099180;28;20540;-79
2021/12/04 00:32:32;;;;;;;5.27;2.13;;;-1.30;99.90;;;;;;5098913;28;20168;-79
2021/12/04 00:51:21;;;;;;;32.50;12.07;;;-1.30;99.90;;;;;;5101454;28;20449;-82
2021/12/04 00:53:47;;;;;;;28.53;11.67;;;-1.30;99.90;;;;;;5105110;28;20421;-80
2021/12/04 00:56:14;;;;;;;16.63;8.23;;;-1.30;99.90;;;;;;5104242;28;20264;-79
2021/12/04 00:58:39;;;;;;;5.80;3.10;;;-1.20;99.90;;;;;;5104460;28;20506;-79
2021/12/04 01:01:05;;;;;;;20.27;11.53;;;-1.20;99.90;;;;;;5104694;28;20442;-79
2021/12/04 01:03:34;;;;;;;4.43;3.27;;;-0.30;99.90;;;;;;5104381;28;20276;-80
2021/12/04 01:06:00;;;;;;;8.57;4.83;;;-1.20;99.90;;;;;;5104133;28;20187;-80
2021/12/04 01:08:25;;;;;;;6.90;4.03;;;-1.20;99.90;;;;;;5104616;28;20414;-80
2021/12/04 01:10:51;;;;;;;2.43;2.23;;;-0.50;99.90;;;;;;5104090;28;20679;-79
2021/12/04 01:13:17;;;;;;;2.13;1.60;;;-1.10;99.90;;;;;;5105183;28;20253;-79
2021/12/04 01:15:44;;;;;;;2.50;1.50;;;-1.10;99.90;;;;;;5105708;28;20204;-79
2021/12/04 01:18:10;;;;;;;2.07;1.80;;;-1.00;99.90;;;;;;5105176;28;20186;-79
2021/12/04 01:20:36;;;;;;;2.03;1.70;;;-0.90;99.90;;;;;;5104523;28;20418;-80
2021/12/04 01:23:03;;;;;;;2.57;1.70;;;-0.80;99.90;;;;;;5104241;28;20772;-79
2021/12/04 01:25:28;;;;;;;1.97;1.60;;;0.00;99.90;;;;;;5107199;28;20429;-79
2021/12/04 01:27:54;;;;;;;2.50;1.80;;;-0.80;99.90;;;;;;5104025;28;20421;-79
2021/12/04 01:30:20;;;;;;;3.90;2.50;;;-0.80;99.90;;;;;;5104328;28;20205;-80
2021/12/04 01:32:46;;;;;;;3.80;2.53;;;-0.80;99.90;;;;;;5102916;28;20178;-79
2021/12/04 01:35:11;;;;;;;5.77;2.40;;;-0.80;99.90;;;;;;5103939;28;20160;-80
2021/12/04 01:37:37;;;;;;;2.87;1.87;;;-0.80;99.90;;;;;;5104301;28;20199;-80
2021/12/04 01:40:05;;;;;;;4.67;2.40;;;-0.80;99.90;;;;;;5102549;28;20184;-80
2021/12/04 01:42:34;;;;;;;4.93;2.33;;;-0.80;99.90;;;;;;5103299;28;20200;-79
2021/12/04 01:45:01;;;;;;;4.90;2.40;;;-0.80;99.90;;;;;;5104991;28;20496;-80
2021/12/04 01:47:27;;;;;;;3.50;2.63;;;0.10;99.90;;;;;;5102845;28;20490;-80
2021/12/04 01:49:54;;;;;;;6.10;2.50;;;0.30;99.90;;;;;;5102992;28;20863;-80
2021/12/04 01:52:20;;;;;;;3.70;1.90;;;-0.60;99.90;;;;;;5104155;28;20170;-79
2021/12/04 01:54:47;;;;;;;2.83;2.00;;;1.10;99.90;;;;;;5103245;28;20505;-79
2021/12/04 01:57:17;;;;;;;4.60;2.30;;;-0.60;99.90;;;;;;5102460;28;20180;-80
2021/12/04 01:59:44;;;;;;;4.63;2.63;;;-0.60;99.90;;;;;;5103994;28;20404;-80
2021/12/04 02:02:10;;;;;;;2.13;1.90;;;0.30;99.90;;;;;;5104089;28;20425;-80
2021/12/04 02:04:36;;;;;;;2.57;1.63;;;-0.50;99.90;;;;;;5106163;28;20424;-80
2021/12/04 02:07:04;;;;;;;2.67;1.60;;;-0.60;99.90;;;;;;5109236;28;20429;-79
2021/12/04 02:09:34;;;;;;;2.47;1.57;;;-0.60;99.90;;;;;;5104272;28;20195;-79
2021/12/04 02:12:03;;;;;;;1.90;1.70;;;-0.50;99.90;;;;;;5103507;28;20398;-80
2021/12/04 02:14:29;;;;;;;3.90;3.47;;;0.90;99.90;;;;;;5101498;28;20435;-80
2021/12/04 02:16:55;;;;;;;2.50;1.67;;;-0.20;99.90;;;;;;5101694;28;20499;-80
2021/12/04 02:19:21;;;;;;;2.60;1.50;;;-0.40;99.90;;;;;;5101651;28;20764;-79
2021/12/04 02:21:47;;;;;;;2.63;2.13;;;-0.30;99.90;;;;;;5102945;28;20172;-80
2021/12/04 02:24:13;;;;;;;11.30;7.73;;;-0.30;99.90;;;;;;5101628;28;20199;-80
2021/12/04 02:26:38;;;;;;;1.90;1.73;;;-0.20;99.90;;;;;;5102323;28;20180;-80
2021/12/04 02:29:04;;;;;;;2.47;2.10;;;0.40;99.90;;;;;;5101216;28;20538;-80
2021/12/04 02:31:30;;;;;;;2.27;2.07;;;-0.10;99.90;;;;;;5102312;28;20677;-80
2021/12/04 02:33:56;;;;;;;1.50;1.40;;;-0.20;99.90;;;;;;5100841;28;20189;-80
2021/12/04 02:36:22;;;;;;;5.43;3.23;;;0.90;99.90;;;;;;5100268;28;20417;-80
2021/12/04 02:38:52;;;;;;;2.00;1.70;;;-0.10;99.90;;;;;;5099974;28;20599;-80
2021/12/04 02:41:22;;;;;;;7.67;5.67;;;1.10;99.90;;;;;;5099272;28;20187;-80
2021/12/04 02:43:48;;;;;;;2.13;1.90;;;0.50;99.90;;;;;;5101155;28;20422;-80
2021/12/04 02:46:15;;;;;;;1.60;1.50;;;-0.10;99.90;;;;;;5100488;28;20428;-80
2021/12/04 02:48:42;;;;;;;1.40;1.30;;;1.30;99.90;;;;;;5100006;28;20433;-80
2021/12/04 02:51:08;;;;;;;1.50;1.40;;;0.10;99.90;;;;;;5099899;28;20457;-81
2021/12/04 02:53:34;;;;;;;1.53;1.10;;;0.00;99.90;;;;;;5101011;28;20433;-81
2021/12/04 02:56:00;;;;;;;1.40;1.13;;;0.00;99.90;;;;;;5101145;28;20405;-80
2021/12/04 02:58:26;;;;;;;1.40;1.30;;;0.10;99.90;;;;;;5100372;28;20172;-81
2021/12/04 03:00:52;;;;;;;1.53;1.30;;;;;;;;;;5099630;28;20172;-81
2021/12/04 03:03:19;;;;;;;1.40;1.30;;;0.10;99.90;;;;;;5101644;28;20199;-81
2021/12/04 03:05:49;;;;;;;1.40;1.30;;;0.20;99.90;;;;;;5101449;28;20886;-81
2021/12/04 03:08:15;;;;;;;1.40;1.30;;;2.70;99.90;;;;;;5100661;28;20923;-81
2021/12/04 03:10:41;;;;;;;1.60;1.33;;;1.30;99.90;;;;;;5100186;28;20506;-81
2021/12/04 03:13:09;;;;;;;1.73;1.50;;;;;;;;;;5100104;28;20532;-81
2021/12/04 03:15:38;;;;;;;1.60;1.20;;;0.00;99.90;;;;;;5101122;28;20255;-81
2021/12/04 03:18:04;;;;;;;1.60;1.50;;;0.10;99.90;;;;;;5100852;28;20427;-81
2021/12/04 03:20:31;;;;;;;1.83;1.33;;;0.00;99.90;;;;;;5100430;28;20433;-81
2021/12/04 03:23:01;;;;;;;1.50;1.40;;;1.40;99.90;;;;;;5101357;28;20642;-81
2021/12/04 03:25:26;;;;;;;1.50;1.40;;;-0.10;99.90;;;;;;5100500;28;20927;-81
2021/12/04 03:27:52;;;;;;;1.40;1.30;;;1.50;99.90;;;;;;5101004;28;20413;-81
2021/12/04 03:31:08;;;;;;;1.27;1.17;;;-0.10;99.90;;;;;;5101999;28;20207;-81
2021/12/04 03:41:02;;;;;;;1.20;1.10;;;;;;;;;;5102669;28;20425;-82
2021/12/04 03:43:30;;;;;;;1.40;1.30;;;-0.10;99.90;;;;;;5100629;28;20434;-81
2021/12/04 03:46:03;;;;;;;1.80;1.10;;;-0.10;99.90;;;;;;5102449;28;20406;-82
2021/12/04 03:51:02;;;;;;;1.10;1.00;;;-0.10;99.90;;;;;;5102516;28;20456;-81
2021/12/04 03:53:28;;;;;;;1.20;1.10;;;-0.10;99.90;;;;;;5102290;28;20426;-81
2021/12/04 03:55:54;;;;;;;2.73;1.23;;;0.90;99.90;;;;;;5103596;28;20406;-81
2021/12/04 03:58:21;;;;;;;1.60;1.27;;;0.00;99.90;;;;;;5103282;28;20406;-81
2021/12/04 04:00:47;;;;;;;1.60;1.50;;;;;;;;;;5101655;28;20501;-81
2021/12/04 04:03:14;;;;;;;1.60;1.50;;;;;;;;;;5102881;28;20441;-81
2021/12/04 04:05:40;;;;;;;1.20;1.10;;;0.00;99.90;;;;;;5104068;28;20402;-81
2021/12/04 04:08:06;;;;;;;1.33;1.23;;;0.00;99.90;;;;;;5104140;28;20446;-81
2021/12/04 04:10:32;;;;;;;2.00;1.40;;;0.00;99.90;;;;;;5103888;28;20207;-81
2021/12/04 04:12:58;;;;;;;1.43;1.17;;;;;;;;;;5103367;28;20430;-81
2021/12/04 04:15:24;;;;;;;1.40;1.30;;;;;;;;;;5103587;28;20399;-81
2021/12/04 04:17:50;;;;;;;1.30;1.20;;;0.00;99.90;;;;;;5102803;28;20406;-80
2021/12/04 04:20:18;;;;;;;0.90;0.90;;;0.00;99.90;;;;;;5104941;28;20418;-81
2021/12/04 04:22:46;;;;;;;2.73;1.50;;;0.00;99.90;;;;;;5106438;28;20413;-80
2021/12/04 04:25:14;;;;;;;1.30;1.20;;;0.00;99.90;;;;;;5101752;28;20407;-80
2021/12/04 04:27:40;;;;;;;1.10;0.97;;;0.10;99.90;;;;;;5104187;28;20483;-80
2021/12/04 04:30:13;;;;;;;1.93;1.43;;;0.10;99.90;;;;;;5104874;28;20449;-80
2021/12/04 04:32:40;;;;;;;2.13;1.27;;;0.20;99.90;;;;;;5105469;28;20408;-81
2021/12/04 04:35:18;;;;;;;1.43;1.33;;;0.20;99.90;;;;;;5105443;28;20421;-80
2021/12/04 04:57:28;;;;;;;1.30;1.20;;;0.20;99.90;;;;;;5087473;28;20419;-80
2021/12/04 04:57:45;;;;;;;0.93;0.93;;;;;;;;;;5107445;28;20390;-80
2021/12/04 05:10:17;;;;;;;0.90;0.90;;;0.70;99.90;;;;;;5107550;28;20410;-81
2021/12/04 05:13:21;;;;;;;0.77;0.73;;;1.40;99.90;;;;;;5106500;28;20437;-81
2021/12/04 05:21:04;;;;;;;5.37;2.70;;;1.80;99.90;;;;;;5106283;28;20393;-81
2021/12/04 05:23:37;;;;;;;17.47;7.17;;;2.00;99.90;;;;;;5106656;28;20421;-82
2021/12/04 05:26:07;;;;;;;10.17;5.47;;;2.00;99.90;;;;;;5107278;28;20383;-82
2021/12/04 05:28:34;;;;;;;5.30;3.33;;;2.20;99.90;;;;;;5106255;28;20391;-81
2021/12/04 05:31:00;;;;;;;1.70;1.50;;;2.20;99.90;;;;;;5104418;28;20442;-81
2021/12/04 05:33:26;;;;;;;5.57;4.47;;;2.20;99.90;;;;;;5104494;28;20426;-82
2021/12/04 05:35:52;;;;;;;4.07;3.60;;;2.30;99.90;;;;;;5105005;28;20183;-83
2021/12/04 05:38:19;;;;;;;2.33;2.13;;;2.40;99.90;;;;;;5104199;28;20426;-81
2021/12/04 05:40:45;;;;;;;2.20;2.00;;;2.20;99.90;;;;;;5104566;28;20410;-81
2021/12/04 05:43:12;;;;;;;1.70;1.60;;;2.20;99.90;;;;;;5106537;28;20430;-82
2021/12/04 05:45:42;;;;;;;2.80;1.60;;;2.40;99.90;;;;;;5104641;28;20426;-82
2021/12/04 05:48:19;;;;;;;1.43;1.33;;;2.20;99.90;;;;;;5104253;28;20418;-82
2021/12/04 05:55:55;;;;;;;1.50;1.40;;;1.60;99.90;;;;;;5105711;28;20402;-82
2021/12/04 05:58:28;;;;;;;2.77;1.80;;;1.70;99.90;;;;;;5104809;28;20447;-82
2021/12/04 06:00:56;;;;;;;1.40;1.30;;;1.70;99.90;;;;;;5104061;28;20426;-82
2021/12/04 06:03:22;;;;;;;2.90;2.10;;;1.70;99.90;;;;;;5103497;28;20450;-83
2021/12/04 06:05:48;;;;;;;2.33;1.70;;;1.80;99.90;;;;;;5105651;28;20917;-82
2021/12/04 06:08:14;;;;;;;2.13;1.90;;;1.90;99.90;;;;;;5103756;28;20272;-82
2021/12/04 06:10:40;;;;;;;2.47;1.90;;;2.00;99.90;;;;;;5104973;28;20300;-82
2021/12/04 06:13:06;;;;;;;1.83;1.73;;;2.10;99.90;;;;;;5103764;28;20207;-82
2021/12/04 06:15:32;;;;;;;2.00;1.80;;;2.30;99.90;;;;;;5103328;28;20414;-82
2021/12/04 06:17:58;;;;;;;1.80;1.70;;;2.30;99.90;;;;;;5105192;28;20216;-83
2021/12/04 06:23:08;;;;;;;1.77;1.60;;;2.40;99.90;;;;;;5105727;28;20226;-82
2021/12/04 06:25:35;;;;;;;3.27;1.70;;;2.50;99.90;;;;;;5105734;28;20406;-82
2021/12/04 06:28:02;;;;;;;2.40;1.30;;;2.50;99.90;;;;;;5104739;28;20566;-83
2021/12/04 06:30:27;;;;;;;1.80;1.30;;;2.60;99.90;;;;;;5104547;28;20465;-83
2021/12/04 06:32:54;;;;;;;1.73;1.63;;;2.70;99.90;;;;;;5105055;28;20430;-83
2021/12/04 06:35:22;;;;;;;1.20;1.10;;;2.70;99.90;;;;;;5108803;28;20507;-83
2021/12/04 06:37:49;;;;;;;1.30;1.20;;;2.80;99.90;;;;;;5109914;28;20402;-83
2021/12/04 06:40:16;;;;;;;5.30;3.90;;;2.90;99.90;;;;;;5107857;28;20498;-83
2021/12/04 06:42:44;;;;;;;3.00;1.70;;;2.80;99.90;;;;;;5104937;28;20418;-83
2021/12/04 06:45:10;;;;;;;1.60;1.50;;;2.90;99.90;;;;;;5105328;28;20440;-83
2021/12/04 06:47:39;;;;;;;1.60;1.50;;;3.00;99.90;;;;;;5105220;28;20796;-84
2021/12/04 06:50:13;;;;;;;1.70;1.40;;;3.00;99.90;;;;;;5104579;28;20453;-83
2021/12/04 06:52:43;;;;;;;1.93;1.83;;;3.00;99.90;;;;;;5103868;28;20399;-84
2021/12/04 06:55:08;;;;;;;1.43;1.33;;;3.00;99.90;;;;;;5103636;28;20409;-84
2021/12/04 06:57:38;;;;;;;1.53;1.43;;;3.10;99.90;;;;;;5105297;28;20398;-84
2021/12/04 07:00:06;;;;;;;1.87;1.47;;;3.20;99.90;;;;;;5104125;28;20183;-84
2021/12/04 07:02:32;;;;;;;1.20;1.20;;;3.20;99.90;;;;;;5103540;28;20783;-83
2021/12/04 07:04:57;;;;;;;1.20;1.10;;;3.20;99.90;;;;;;5103543;28;20442;-84
2021/12/04 07:07:23;;;;;;;1.40;1.30;;;3.20;99.90;;;;;;5103075;28;20538;-84
2021/12/04 07:09:49;;;;;;;1.13;1.07;;;3.30;99.90;;;;;;5103566;28;20274;-84
2021/12/04 07:12:14;;;;;;;1.10;1.10;;;3.40;99.90;;;;;;5103512;28;20176;-85
2021/12/04 07:14:40;;;;;;;1.30;1.20;;;3.60;99.90;;;;;;5105150;28;20198;-84
2021/12/04 07:17:08;;;;;;;0.90;0.90;;;3.60;99.90;;;;;;5103934;28;20184;-84
2021/12/04 07:19:34;;;;;;;2.07;1.13;;;3.70;99.90;;;;;;5104529;28;20168;-84
2021/12/04 07:22:02;;;;;;;1.30;1.20;;;3.80;99.90;;;;;;5105138;28;20445;-84
2021/12/04 07:24:29;;;;;;;1.53;1.40;;;3.80;99.90;;;;;;5103592;28;20226;-84
2021/12/04 07:26:55;;;;;;;1.10;1.10;;;3.80;99.90;;;;;;5103477;28;20418;-84
2021/12/04 07:29:21;;;;;;;25.57;7.73;;;3.80;99.90;;;;;;5104639;28;20523;-84
2021/12/04 07:31:47;;;;;;;1.30;1.20;;;3.90;99.90;;;;;;5103699;28;20241;-84
2021/12/04 07:34:12;;;;;;;0.87;0.87;;;3.90;99.90;;;;;;5102922;28;20196;-84
2021/12/04 07:36:38;;;;;;;1.00;1.00;;;4.00;99.90;;;;;;5103744;28;20191;-83
2021/12/04 07:39:04;;;;;;;0.73;0.73;;;4.00;99.90;;;;;;5103431;28;20245;-83
2021/12/04 07:41:30;;;;;;;1.20;1.10;;;4.10;99.90;;;;;;5104948;28;20286;-83
2021/12/04 07:43:57;;;;;;;1.07;0.90;;;4.20;99.90;;;;;;5105381;28;20430;-84
2021/12/04 07:46:23;;;;;;;1.10;1.10;;;4.20;99.90;;;;;;5102970;28;20216;-84
2021/12/04 07:48:48;;;;;;;1.00;0.90;;;4.20;99.90;;;;;;5103152;28;20429;-83
2021/12/04 07:51:17;;;;;;;1.37;1.27;;;4.20;99.90;;;;;;5102700;28;20211;-84
2021/12/04 07:53:46;;;;;;;1.07;0.97;;;4.30;99.90;;;;;;5103893;28;20566;-84
2021/12/04 07:56:14;;;;;;;0.77;0.77;;;4.50;99.90;;;;;;5103753;28;20478;-84
2021/12/04 07:58:42;;;;;;;0.73;0.73;;;4.30;99.90;;;;;;5103299;28;20422;-83
2021/12/04 08:01:08;;;;;;;1.10;1.10;;;4.30;99.90;;;;;;5102795;28;20513;-84
2021/12/04 08:03:34;;;;;;;0.90;0.90;;;4.30;99.90;;;;;;5103110;28;20441;-84
2021/12/04 08:05:59;;;;;;;1.10;1.10;;;4.30;99.90;;;;;;5104358;28;20414;-84
2021/12/04 08:08:25;;;;;;;0.90;0.90;;;4.30;99.90;;;;;;5103361;28;20202;-83
2021/12/04 08:10:51;;;;;;;0.80;0.80;;;4.20;99.90;;;;;;5101550;28;20212;-83
2021/12/04 08:13:18;;;;;;;1.23;1.13;;;4.30;99.90;;;;;;5083839;28;20632;-83
2021/12/04 08:15:43;;;;;;;0.87;0.87;;;4.30;99.90;;;;;;5101933;28;20406;-84
2021/12/04 08:18:09;;;;;;;1.40;1.30;;;4.30;99.90;;;;;;5100090;28;20180;-83
2021/12/04 08:20:36;;;;;;;1.30;1.20;;;4.30;99.90;;;;;;5099195;28;20640;-83
2021/12/04 08:23:03;;;;;;;1.00;1.00;;;4.30;99.90;;;;;;5099407;28;20442;-84
2021/12/04 08:25:31;;;;;;;1.30;1.20;;;4.30;99.90;;;;;;5099866;28;20899;-83
2021/12/04 08:27:57;;;;;;;1.10;1.00;;;4.30;99.90;;;;;;5100508;28;20424;-83
2021/12/04 08:30:25;;;;;;;1.17;1.10;;;4.40;99.90;;;;;;5099885;28;20492;-83
2021/12/04 08:32:54;;;;;;;1.30;1.20;;;4.40;99.90;;;;;;5098414;28;20438;-83
2021/12/04 08:35:23;;;;;;;0.90;0.90;;;4.50;99.90;;;;;;5098742;28;20433;-83
2021/12/04 08:37:49;;;;;;;1.70;1.43;;;4.50;99.90;;;;;;5098602;28;20421;-82
2021/12/04 08:40:15;;;;;;;1.17;1.17;;;4.50;99.90;;;;;;5098747;28;20458;-82
2021/12/04 08:42:46;;;;;;;1.23;1.10;;;4.70;99.90;;;;;;5099584;28;20661;-80
2021/12/04 08:45:14;;;;;;;0.97;0.97;;;4.70;99.90;;;;;;5101349;28;20896;-79
2021/12/04 08:47:40;;;;;;;1.00;1.00;;;4.70;99.90;;;;;;5102598;28;20465;-81
2021/12/04 08:50:09;;;;;;;0.93;0.93;;;4.80;99.90;;;;;;5103944;28;20411;-81
2021/12/04 08:52:36;;;;;;;0.97;0.97;;;4.80;99.90;;;;;;5105889;28;20402;-81
2021/12/04 08:55:02;;;;;;;0.93;0.93;;;4.90;99.90;;;;;;5106588;28;20435;-79
2021/12/04 08:57:28;;;;;;;1.07;0.93;;;4.80;99.90;;;;;;5099969;28;20418;-79
2021/12/04 08:59:53;;;;;;;0.90;0.90;;;4.90;99.90;;;;;;5101590;28;20425;-81
2021/12/04 09:02:19;;;;;;;0.80;0.80;;;5.00;99.90;;;;;;5098709;28;20176;-80
2021/12/04 09:04:46;;;;;;;0.87;0.87;;;5.00;99.90;;;;;;5099416;28;20552;-81
2021/12/04 09:07:14;;;;;;;0.90;0.90;;;5.00;99.90;;;;;;5098859;28;20176;-81
2021/12/04 09:09:40;;;;;;;1.23;1.13;;;5.10;99.90;;;;;;5098626;28;20495;-81
2021/12/04 09:12:09;;;;;;;2.13;1.00;;;5.10;99.90;;;;;;5100347;28;20465;-80
2021/12/04 09:14:39;;;;;;;1.60;0.83;;;5.10;99.90;;;;;;5103409;28;20196;-81
2021/12/04 09:17:08;;;;;;;0.80;0.80;;;5.00;99.90;;;;;;5102602;28;20424;-79
2021/12/04 09:19:37;;;;;;;0.50;0.50;;;5.10;99.90;;;;;;5101955;28;20942;-80
2021/12/04 09:22:07;;;;;;;0.80;0.80;;;5.20;99.90;;;;;;5102920;28;20440;-80
2021/12/04 09:24:41;;;;;;;0.80;0.80;;;5.30;99.90;;;;;;5103421;28;20450;-80
2021/12/04 09:27:14;;;;;;;2.13;0.90;;;5.30;99.90;;;;;;5103952;28;20446;-80
2021/12/04 10:32:37;;;;;;;2.80;2.50;;;6.50;99.90;;;;;;5100299;28;20882;-81
2021/12/04 10:35:23;;;;;;;1.03;1.03;;;6.50;99.90;;;;;;5100524;28;20194;-80
2021/12/04 10:38:05;;;;;;;2.23;1.50;;;6.60;99.90;;;;;;5099387;28;20429;-82
2021/12/04 10:40:42;;;;;;;1.20;1.10;;;6.70;99.90;;;;;;5098581;28;20179;-80
2021/12/04 10:43:15;;;;;;;1.50;1.40;;;6.70;99.90;;;;;;5101153;28;20481;-80
2021/12/04 10:45:45;;;;;;;1.17;1.07;;;6.70;99.90;;;;;;5099547;28;20641;-81
2021/12/04 10:48:17;;;;;;;3.70;2.57;;;6.60;99.90;;;;;;5100052;28;20414;-82
2021/12/04 10:53:23;;;;;;;1.23;1.13;;;6.60;99.90;;;;;;5100331;28;20638;-81
2021/12/04 11:02:04;;;;;;;0.93;0.93;;;6.90;99.90;;;;;;5089311;28;20208;-81
2021/12/04 11:18:42;;;;;;;1.80;1.10;;;7.10;99.90;;;;;;5103386;28;20179;-80
2021/12/04 11:18:44;;;;;;;5.47;1.37;;;6.80;99.90;;;;;;5099081;28;20164;-80
2021/12/04 11:26:52;;;;;;;1.17;1.07;;;6.90;99.90;;;;;;5098497;28;20386;-81
2021/12/04 11:42:54;;;;;;;0.90;0.90;;;7.80;99.90;;;;;;5099338;28;20447;-80
2021/12/04 11:45:29;;;;;;;1.37;1.20;;;7.70;99.90;;;;;;5100381;28;20201;-80
2021/12/04 11:47:57;;;;;;;0.70;0.70;;;7.70;99.90;;;;;;5100894;28;20168;-80
2021/12/04 11:50:25;;;;;;;0.63;0.60;;;7.70;99.90;;;;;;5100306;28;20195;-81
2021/12/04 11:52:55;;;;;;;1.07;0.87;;;7.70;99.90;;;;;;5099770;28;20196;-82
2021/12/04 11:55:23;;;;;;;1.97;1.00;;;7.70;99.90;;;;;;5100251;28;20247;-80
2021/12/04 11:57:50;;;;;;;1.00;0.80;;;7.70;99.90;;;;;;5097894;28;20263;-80
2021/12/04 12:00:26;;;;;;;0.93;0.90;;;7.70;99.90;;;;;;5097825;28;20180;-80
2021/12/04 12:03:05;;;;;;;0.90;0.90;;;7.90;99.90;;;;;;5097863;28;20203;-80
2021/12/04 12:05:31;;;;;;;0.90;0.80;;;7.90;99.90;;;;;;5098853;28;20156;-79
2021/12/04 12:07:58;;;;;;;1.00;0.70;;;7.80;99.90;;;;;;5098028;28;20179;-80
2021/12/04 12:10:27;;;;;;;1.20;1.10;;;7.70;99.90;;;;;;5086564;28;20245;-81
2021/12/04 12:13:03;;;;;;;1.10;1.00;;;7.60;99.90;;;;;;5079189;28;20241;-80
2021/12/04 12:15:33;;;;;;;2.87;2.63;;;7.60;99.90;;;;;;5080032;28;20176;-82
2021/12/04 12:18:18;;;;;;;3.10;2.80;;;7.50;99.90;;;;;;5081494;28;20240;-81
2021/12/04 12:20:53;;;;;;;9.53;8.73;;;7.50;99.90;;;;;;5079765;28;20661;-81
2021/12/04 12:23:23;;;;;;;1.23;1.13;;;7.50;99.90;;;;;;5078933;28;20203;-82
2021/12/04 12:34:11;;;;;;;0.70;0.70;;;7.70;99.90;;;;;;5080146;28;20681;-81
2021/12/04 12:36:37;;;;;;;1.20;0.90;;;7.60;99.90;;;;;;5079311;28;20588;-80
2021/12/04 12:39:07;;;;;;;0.87;0.80;;;7.60;99.90;;;;;;5078569;28;20173;-81
2021/12/04 12:41:51;;;;;;;0.70;0.60;;;7.60;99.90;;;;;;5079101;28;20661;-80
2021/12/04 12:44:26;;;;;;;1.17;0.90;;;7.70;99.90;;;;;;5078402;28;20227;-81
2021/12/04 12:46:56;;;;;;;1.03;0.93;;;7.60;99.90;;;;;;5078477;28;20172;-81
2021/12/04 12:49:38;;;;;;;0.80;0.80;;;7.60;99.90;;;;;;5083916;28;20177;-82
2021/12/04 12:52:09;;;;;;;0.80;0.80;;;7.60;99.90;;;;;;5082076;28;20211;-79
2021/12/04 12:54:54;;;;;;;0.50;0.50;;;7.60;99.90;;;;;;5083924;28;20247;-81
2021/12/04 12:57:24;;;;;;;0.77;0.77;;;7.60;99.90;;;;;;5083888;28;20175;-81
2021/12/04 13:11:42;;;;;;;1.60;1.20;;;7.40;99.90;;;;;;5084806;28;20457;-81
2021/12/04 13:14:09;;;;;;;1.53;1.43;;;7.30;99.90;;;;;;5082184;28;20252;-80
2021/12/04 13:16:35;;;;;;;2.03;1.73;;;7.20;99.90;;;;;;5083155;28;20165;-80
2021/12/04 13:19:06;;;;;;;3.10;2.67;;;7.20;99.90;;;;;;5084641;28;20165;-81
2021/12/04 13:21:38;;;;;;;2.70;2.10;;;7.10;99.90;;;;;;5082819;28;20177;-81
2021/12/04 13:24:05;;;;;;;2.67;2.10;;;6.90;99.90;;;;;;5082565;28;20201;-81
2021/12/04 13:26:34;;;;;;;3.20;1.90;;;6.90;99.90;;;;;;5082573;28;20430;-81
2021/12/04 13:29:01;;;;;;;2.17;1.97;;;6.90;99.90;;;;;;5084308;28;20418;-81
2021/12/04 13:31:28;;;;;;;1.67;0.90;;;6.80;99.90;;;;;;5085083;28;20207;-81
2021/12/04 13:33:54;;;;;;;164.97;65.37;;;6.70;99.90;;;;;;5087143;28;20189;-81
2021/12/04 13:36:26;;;;;;;3.67;3.17;;;6.50;99.90;;;;;;5087719;28;20398;-80
2021/12/04 13:39:08;;;;;;;1.83;1.43;;;6.50;99.90;;;;;;5086716;28;20463;-80
2021/12/04 13:41:35;;;;;;;3.80;2.03;;;6.40;99.90;;;;;;5079624;28;20805;-82
2021/12/04 13:44:02;;;;;;;2.33;1.90;;;6.40;99.90;;;;;;5079719;28;20451;-82
2021/12/04 13:46:36;;;;;;;1.97;1.87;;;6.30;99.90;;;;;;5079808;28;20460;-82
2021/12/04 13:49:03;;;;;;;2.83;2.37;;;6.30;99.90;;;;;;5082031;28;20157;-82
2021/12/04 13:51:29;;;;;;;5.30;3.87;;;6.20;99.90;;;;;;5079831;28;20465;-83
2021/12/04 13:53:55;;;;;;;1.63;1.50;;;6.20;99.90;;;;;;5079810;28;20431;-80
2021/12/04 13:56:24;;;;;;;2.03;1.80;;;6.20;99.90;;;;;;5081137;28;20169;-82
2021/12/04 13:59:00;;;;;;;7.97;5.57;;;6.10;99.90;;;;;;5078520;28;20261;-81
2021/12/04 14:01:27;;;;;;;3.70;3.10;;;6.00;99.90;;;;;;5079072;28;20419;-81
2021/12/04 14:03:58;;;;;;;3.30;2.50;;;6.00;99.90;;;;;;5078813;28;20554;-82
2021/12/04 14:06:24;;;;;;;3.00;2.07;;;6.00;99.90;;;;;;5079586;28;20469;-82
2021/12/04 14:09:04;;;;;;;2.60;1.40;;;5.90;99.90;;;;;;5081529;28;20407;-81
2021/12/04 14:11:35;;;;;;;4.30;2.47;;;5.80;99.90;;;;;;5080213;28;20458;-82
2021/12/04 14:14:18;;;;;;;2.30;1.83;;;5.80;99.90;;;;;;5082201;28;20466;-81
2021/12/04 14:16:50;;;;;;;8.17;5.30;;;5.80;99.90;;;;;;5081052;28;20908;-81
2021/12/04 14:19:29;;;;;;;2.70;1.80;;;5.90;99.90;;;;;;5080535;28;20415;-81
2021/12/04 14:22:04;;;;;;;4.40;2.43;;;5.80;99.90;;;;;;5082220;28;20407;-82
2021/12/04 14:24:37;;;;;;;4.10;3.60;;;5.80;99.90;;;;;;5082197;28;20427;-82
2021/12/04 14:27:04;;;;;;;4.43;2.20;;;5.90;99.90;;;;;;5081440;28;20415;-82
2021/12/04 14:29:36;;;;;;;4.10;3.33;;;5.90;99.90;;;;;;5083174;28;20407;-82
2021/12/04 14:32:04;;;;;;;5.13;3.50;;;5.90;99.90;;;;;;5082027;28;20462;-81
2021/12/04 14:34:30;;;;;;;10.47;5.77;;;5.90;99.90;;;;;;5083941;28;20450;-82
2021/12/04 14:37:16;;;;;;;3.63;2.47;;;5.80;99.90;;;;;;5082523;28;20418;-83
2021/12/04 14:39:45;;;;;;;7.03;4.00;;;5.80;99.90;;;;;;5084083;28;20391;-83
2021/12/04 14:42:23;;;;;;;7.73;3.97;;;5.80;99.90;;;;;;5084786;28;20408;-85
2021/12/04 14:44:52;;;;;;;7.60;4.77;;;5.80;99.90;;;;;;5085148;28;20442;-84
2021/12/04 14:47:19;;;;;;;11.20;6.93;;;5.80;99.90;;;;;;5086090;28;20569;-84
2021/12/04 14:49:46;;;;;;;17.23;8.63;;;5.70;99.90;;;;;;5084747;28;20421;-83
2021/12/04 14:52:24;;;;;;;8.90;4.93;;;5.80;99.90;;;;;;5082679;28;20462;-84
2021/12/04 14:54:51;;;;;;;66.00;19.63;;;5.70;99.90;;;;;;5085023;28;20443;-84
2021/12/04 14:57:25;;;;;;;4.37;3.50;;;5.70;99.90;;;;;;5090585;28;20399;-83
2021/12/04 15:00:19;;;;;;;2.77;1.73;;;5.70;99.90;;;;;;5078998;28;20447;-83
2021/12/04 15:03:01;;;;;;;2.67;1.67;;;5.70;99.90;;;;;;5078293;28;20419;-83
